createdAt,value
2023-02-27T00:00:47.747Z,2.70
2023-02-27T00:03:50.245Z,2.75
2023-02-27T00:06:52.589Z,2.68
2023-02-27T00:09:54.807Z,2.70
2023-02-27T00:12:57.072Z,2.71
2023-02-27T00:15:59.373Z,2.70
2023-02-27T00:19:04.664Z,2.68
2023-02-27T00:22:06.873Z,2.66
2023-02-27T00:25:10.202Z,2.82
2023-02-27T00:28:12.569Z,2.75
2023-02-27T00:31:14.870Z,2.71
2023-02-27T00:34:17.451Z,2.68
2023-02-27T00:37:20.552Z,2.70
2023-02-27T00:40:25.425Z,2.64
2023-02-27T00:43:27.694Z,2.58
2023-02-27T00:46:31.612Z,2.66
2023-02-27T00:49:33.865Z,2.61
2023-02-27T00:52:36.323Z,2.66
2023-02-27T00:55:38.586Z,2.68
2023-02-27T00:58:40.842Z,2.64
2023-02-27T01:01:44.589Z,2.64
2023-02-27T01:04:46.873Z,2.71
2023-02-27T01:07:49.073Z,2.71
2023-02-27T01:10:51.294Z,2.72
2023-02-27T01:13:53.484Z,2.70
2023-02-27T01:16:55.834Z,2.71
2023-02-27T01:19:58.092Z,2.70
2023-02-27T01:23:00.411Z,2.70
2023-02-27T01:26:02.928Z,2.65
2023-02-27T01:29:06.520Z,2.72
2023-02-27T01:32:09.095Z,2.70
2023-02-27T01:35:13.182Z,2.70
2023-02-27T01:38:15.484Z,2.68
2023-02-27T01:41:17.767Z,2.65
2023-02-27T01:44:19.995Z,2.70
2023-02-27T01:47:22.275Z,2.60
2023-02-27T01:50:25.270Z,2.58
2023-02-27T01:53:29.754Z,2.75
2023-02-27T01:56:33.053Z,2.65
2023-02-27T01:59:37.033Z,2.64
2023-02-27T02:02:42.430Z,2.62
2023-02-27T02:05:46.934Z,2.62
2023-02-27T02:08:51.407Z,2.71
2023-02-27T02:11:56.425Z,2.64
2023-02-27T02:14:58.654Z,2.64
2023-02-27T02:18:12.422Z,2.72
2023-02-27T02:21:30.096Z,2.68
2023-02-27T02:24:35.903Z,2.65
2023-02-27T02:27:47.048Z,2.60
2023-02-27T02:31:30.272Z,2.51
2023-02-27T02:35:16.488Z,2.45
2023-02-27T02:38:31.377Z,2.40
2023-02-27T02:41:58.931Z,2.43
2023-02-27T02:45:13.889Z,2.27
2023-02-27T02:48:18.766Z,2.29
2023-02-27T02:51:24.183Z,2.14
2023-02-27T02:54:41.020Z,2.10
2023-02-27T02:57:53.850Z,2.09
2023-02-27T03:00:59.741Z,2.17
2023-02-27T03:04:18.407Z,2.07
2023-02-27T03:07:32.707Z,2.05
2023-02-27T03:10:51.112Z,2.02
2023-02-27T03:13:58.979Z,2.09
2023-02-27T03:17:06.926Z,1.87
2023-02-27T03:20:12.212Z,1.79
2023-02-27T03:23:21.906Z,1.78
2023-02-27T03:26:32.465Z,1.69
2023-02-27T03:29:44.825Z,1.62
2023-02-27T03:33:13.495Z,1.54
2023-02-27T03:36:31.760Z,1.41
2023-02-27T03:39:46.326Z,1.27
2023-02-27T03:43:07.042Z,1.24
2023-02-27T03:46:22.560Z,1.14
2023-02-27T03:49:27.086Z,1.05
2023-02-27T03:52:30.304Z,1.07
2023-02-27T03:55:40.036Z,1.00
2023-02-27T03:58:42.706Z,1.01
2023-02-27T04:01:45.525Z,1.00
2023-02-27T04:04:47.926Z,1.01
2023-02-27T04:08:39.988Z,1.00
2023-02-27T04:11:47.958Z,1.00
2023-02-27T04:15:05.016Z,1.01
2023-02-27T04:18:39.434Z,0.75
2023-02-27T04:22:16.386Z,0.75
2023-02-27T04:25:40.116Z,0.73
2023-02-27T04:28:48.706Z,0.79
2023-02-27T04:32:12.467Z,0.81
2023-02-27T04:35:23.976Z,0.86
2023-02-27T04:38:28.565Z,1.00
2023-02-27T04:41:52.536Z,0.96
2023-02-27T04:45:01.491Z,1.01
2023-02-27T04:48:10.683Z,1.00
2023-02-27T04:51:20.801Z,1.01
2023-02-27T04:54:36.371Z,1.11
2023-02-27T04:57:42.901Z,1.01
2023-02-27T05:00:58.028Z,0.97
2023-02-27T05:04:01.799Z,0.99
2023-02-27T05:07:07.811Z,0.93
2023-02-27T05:10:21.393Z,0.96
2023-02-27T05:13:41.460Z,0.93
2023-02-27T05:16:46.701Z,0.96
2023-02-27T05:19:49.668Z,1.00
2023-02-27T05:23:07.251Z,1.07
2023-02-27T05:26:16.678Z,1.11
2023-02-27T05:29:30.948Z,1.20
2023-02-27T05:32:39.700Z,1.24
2023-02-27T05:35:48.906Z,1.18
2023-02-27T05:38:59.626Z,1.13
2023-02-27T05:42:06.960Z,1.23
2023-02-27T05:45:13.500Z,1.26
2023-02-27T05:48:26.808Z,1.32
2023-02-27T05:51:34.083Z,1.34
2023-02-27T05:54:42.123Z,1.37
2023-02-27T05:57:49.423Z,1.34
2023-02-27T06:01:04.093Z,1.41
2023-02-27T06:04:06.364Z,1.45
2023-02-27T06:07:08.751Z,1.41
2023-02-27T06:10:15.341Z,1.45
2023-02-27T06:13:17.893Z,1.44
2023-02-27T06:16:20.153Z,1.58
2023-02-27T06:19:22.372Z,1.58
2023-02-27T06:22:24.616Z,1.61
2023-02-27T06:25:33.466Z,1.59
2023-02-27T06:28:35.774Z,1.75
2023-02-27T06:31:44.495Z,1.68
2023-02-27T06:34:46.815Z,1.65
2023-02-27T06:37:49.113Z,1.83
2023-02-27T06:40:53.486Z,1.95
2023-02-27T06:43:58.729Z,2.13
2023-02-27T06:47:03.171Z,2.12
2023-02-27T06:50:11.347Z,2.19
2023-02-27T06:53:14.867Z,2.13
2023-02-27T06:56:17.170Z,2.26
2023-02-27T06:59:19.447Z,2.38
2023-02-27T07:02:28.870Z,2.60
2023-02-27T07:05:39.487Z,2.78
2023-02-27T07:09:02.771Z,2.80
2023-02-27T07:12:16.161Z,2.92
2023-02-27T07:15:18.681Z,3.04
2023-02-27T07:18:21.316Z,3.39
2023-02-27T07:21:26.785Z,3.50
2023-02-27T07:24:29.233Z,3.73
2023-02-27T07:27:31.898Z,3.90
2023-02-27T07:30:36.746Z,4.07
2023-02-27T07:33:39.061Z,4.38
2023-02-27T07:36:47.496Z,4.56
2023-02-27T07:39:56.208Z,5.08
2023-02-27T07:42:58.547Z,6.02
2023-02-27T07:46:04.086Z,6.16
2023-02-27T07:49:06.572Z,6.78
2023-02-27T07:52:09.082Z,7.39
2023-02-27T07:55:13.067Z,7.42
2023-02-27T07:58:15.395Z,7.70
2023-02-27T08:01:29.870Z,7.75
2023-02-27T08:04:33.125Z,7.46
2023-02-27T08:07:40.647Z,7.32
2023-02-27T08:10:47.952Z,7.12
2023-02-27T08:14:06.425Z,7.02
2023-02-27T08:17:12.637Z,7.08
2023-02-27T08:20:24.163Z,7.32
2023-02-27T08:23:35.322Z,7.09
2023-02-27T08:26:39.981Z,7.30
2023-02-27T08:29:43.664Z,7.13
2023-02-27T08:32:49.107Z,7.05
2023-02-27T08:35:52.020Z,7.12
2023-02-27T08:39:00.036Z,7.42
2023-02-27T08:42:07.199Z,7.62
2023-02-27T08:45:10.585Z,7.62
2023-02-27T08:48:15.770Z,8.01
2023-02-27T08:51:18.371Z,8.70
2023-02-27T08:54:20.968Z,8.87
2023-02-27T08:57:23.441Z,9.26
2023-02-27T09:00:27.067Z,9.82
2023-02-27T09:03:29.681Z,10.24
2023-02-27T09:06:35.951Z,10.37
2023-02-27T09:09:38.349Z,10.14
2023-02-27T09:12:43.229Z,9.31
2023-02-27T09:15:48.081Z,9.57
2023-02-27T09:18:54.210Z,9.31
2023-02-27T09:21:56.849Z,8.12
2023-02-27T09:24:59.149Z,8.29
2023-02-27T09:28:01.740Z,8.12
2023-02-27T09:31:08.353Z,8.22
2023-02-27T09:34:13.464Z,8.05
2023-02-27T09:37:19.409Z,7.87
2023-02-27T09:40:30.721Z,8.09
2023-02-27T09:43:45.942Z,7.44
2023-02-27T09:46:48.394Z,7.35
2023-02-27T09:50:29.646Z,7.46
2023-02-27T09:53:52.710Z,7.57
2023-02-27T09:57:00.865Z,7.54
2023-02-27T10:00:26.232Z,7.69
2023-02-27T10:04:09.388Z,7.63
2023-02-27T10:07:37.135Z,7.42
2023-02-27T10:11:03.918Z,7.64
2023-02-27T10:15:00.483Z,7.81
2023-02-27T10:18:25.422Z,7.91
2023-02-27T10:21:39.561Z,7.67
2023-02-27T10:24:54.527Z,7.63
2023-02-27T10:28:04.584Z,8.15
2023-02-27T10:31:16.043Z,9.14
2023-02-27T10:34:18.841Z,10.26
2023-02-27T10:37:24.341Z,11.32
2023-02-27T10:40:27.602Z,12.01
2023-02-27T10:43:30.447Z,12.31
2023-02-27T10:46:38.469Z,12.82
2023-02-27T10:49:43.384Z,12.95
2023-02-27T10:52:52.283Z,12.16
2023-02-27T10:56:01.806Z,13.43
2023-02-27T10:59:07.113Z,15.30
2023-02-27T11:02:21.259Z,16.19
2023-02-27T11:05:36.907Z,18.41
2023-02-27T11:08:41.963Z,20.33
2023-02-27T11:11:44.788Z,18.63
2023-02-27T11:15:20.013Z,17.45
2023-02-27T11:18:30.152Z,17.32
2023-02-27T11:21:32.445Z,16.50
2023-02-27T11:24:35.617Z,15.34
2023-02-27T11:27:38.023Z,13.81
2023-02-27T11:30:55.200Z,12.76
2023-02-27T11:34:01.879Z,12.32
2023-02-27T11:37:06.018Z,12.07
2023-02-27T11:40:13.368Z,12.24
2023-02-27T11:43:22.753Z,11.80
2023-02-27T11:46:47.879Z,11.79
2023-02-27T11:50:17.083Z,11.01
2023-02-27T11:53:28.096Z,12.31
2023-02-27T11:56:36.572Z,13.75
2023-02-27T11:59:44.047Z,12.99
2023-02-27T12:03:04.585Z,13.68
2023-02-27T12:06:47.213Z,15.11
2023-02-27T12:10:09.032Z,16.02
2023-02-27T12:13:19.590Z,16.13
2023-02-27T12:16:32.944Z,16.95
2023-02-27T12:20:07.908Z,17.59
2023-02-27T12:23:54.488Z,18.31
2023-02-27T12:27:19.568Z,17.28
2023-02-27T12:30:26.011Z,16.20
2023-02-27T12:33:38.054Z,14.96
2023-02-27T12:36:48.066Z,12.99
2023-02-27T12:39:53.203Z,12.88
2023-02-27T12:43:04.474Z,12.24
2023-02-27T12:46:21.699Z,12.44
2023-02-27T12:49:41.869Z,12.58
2023-02-27T12:53:08.884Z,11.74
2023-02-27T12:56:20.527Z,11.04
2023-02-27T12:59:47.011Z,10.82
2023-02-27T13:02:53.797Z,10.44
2023-02-27T13:06:10.777Z,10.17
2023-02-27T13:09:33.606Z,10.44
2023-02-27T13:12:54.389Z,10.51
2023-02-27T13:16:06.047Z,10.84
2023-02-27T13:19:18.911Z,11.22
2023-02-27T13:22:39.034Z,13.75
2023-02-27T13:25:45.218Z,11.82
2023-02-27T13:28:48.575Z,10.97
2023-02-27T13:32:03.036Z,10.24
2023-02-27T13:35:33.134Z,9.92
2023-02-27T13:38:46.088Z,9.41
2023-02-27T13:41:48.329Z,8.97
2023-02-27T13:44:51.224Z,8.67
2023-02-27T13:47:55.013Z,8.70
2023-02-27T13:50:58.866Z,8.39
2023-02-27T13:54:13.406Z,8.46
2023-02-27T13:57:24.982Z,8.45
2023-02-27T14:00:33.192Z,8.24
2023-02-27T14:03:35.521Z,7.80
2023-02-27T14:06:48.951Z,7.81
2023-02-27T14:10:11.181Z,7.62
2023-02-27T14:13:50.481Z,7.47
2023-02-27T14:16:52.859Z,7.32
2023-02-27T14:19:57.162Z,7.26
2023-02-27T14:23:21.290Z,6.85
2023-02-27T14:26:26.542Z,6.96
2023-02-27T14:29:31.383Z,6.63
2023-02-27T14:32:37.022Z,6.71
2023-02-27T14:35:39.817Z,6.37
2023-02-27T14:38:42.139Z,6.45
2023-02-27T14:41:54.018Z,6.48
2023-02-27T14:44:59.053Z,6.51
2023-02-27T14:48:01.784Z,6.36
2023-02-27T14:51:05.100Z,6.37
2023-02-27T14:54:07.394Z,6.30
2023-02-27T14:57:16.984Z,6.55
2023-02-27T15:00:52.766Z,6.84
2023-02-27T15:03:58.694Z,6.41
2023-02-27T15:07:01.354Z,6.38
2023-02-27T15:10:08.954Z,6.40
2023-02-27T15:13:25.337Z,6.19
2023-02-27T15:16:34.351Z,5.95
2023-02-27T15:19:37.339Z,5.85
2023-02-27T15:22:40.270Z,5.88
2023-02-27T15:25:42.626Z,5.96
2023-02-27T15:28:44.912Z,5.76
2023-02-27T15:31:47.407Z,5.83
2023-02-27T15:34:49.914Z,5.79
2023-02-27T15:37:55.676Z,5.83
2023-02-27T15:41:05.338Z,5.89
2023-02-27T15:44:07.726Z,5.69
2023-02-27T15:47:13.856Z,5.61
2023-02-27T15:50:16.040Z,5.48
2023-02-27T15:53:24.093Z,5.44
2023-02-27T15:56:31.765Z,5.51
2023-02-27T15:59:39.922Z,5.48
2023-02-27T16:02:54.886Z,5.41
2023-02-27T16:05:57.866Z,5.24
2023-02-27T16:09:04.558Z,5.00
2023-02-27T16:12:12.811Z,4.93
2023-02-27T16:15:18.124Z,4.90
2023-02-27T16:18:36.413Z,4.76
2023-02-27T16:21:38.608Z,4.55
2023-02-27T16:24:41.379Z,4.36
2023-02-27T16:27:50.177Z,4.38
2023-02-27T16:30:54.405Z,4.28
2023-02-27T16:34:00.164Z,4.18
2023-02-27T16:37:05.646Z,4.17
2023-02-27T16:40:34.162Z,4.08
2023-02-27T16:43:36.451Z,3.87
2023-02-27T16:46:38.779Z,3.69
2023-02-27T16:49:41.135Z,3.47
2023-02-27T16:52:43.773Z,3.49
2023-02-27T16:55:46.125Z,3.56
2023-02-27T16:58:48.655Z,3.53
2023-02-27T17:01:50.852Z,3.57
2023-02-27T17:04:53.206Z,3.36
2023-02-27T17:07:55.515Z,3.15
2023-02-27T17:10:58.292Z,2.92
2023-02-27T17:14:07.698Z,2.88
2023-02-27T17:17:11.615Z,2.66
2023-02-27T17:20:14.892Z,2.70
2023-02-27T17:23:17.152Z,2.61
2023-02-27T17:26:19.516Z,2.03
2023-02-27T17:29:22.598Z,1.62
2023-02-27T17:32:24.989Z,1.86
2023-02-27T17:35:27.366Z,2.13
2023-02-27T17:38:29.664Z,2.12
2023-02-27T17:41:32.443Z,2.03
2023-02-27T17:44:34.964Z,2.06
2023-02-27T17:47:37.487Z,2.07
2023-02-27T17:50:40.232Z,2.27
2023-02-27T17:53:42.932Z,2.09
2023-02-27T17:56:45.263Z,2.09
2023-02-27T17:59:47.503Z,2.22
2023-02-27T18:02:49.905Z,2.16
2023-02-27T18:05:52.870Z,2.17
2023-02-27T18:08:55.165Z,2.29
2023-02-27T18:11:58.095Z,2.24
2023-02-27T18:15:01.183Z,2.17
2023-02-27T18:18:03.564Z,2.29
2023-02-27T18:21:10.028Z,2.43
2023-02-27T18:24:12.280Z,2.33
2023-02-27T18:27:14.587Z,2.31
2023-02-27T18:30:19.568Z,2.36
2023-02-27T18:33:23.128Z,2.31
2023-02-27T18:36:25.448Z,2.33
2023-02-27T18:39:27.652Z,2.27
2023-02-27T18:42:30.015Z,2.33
2023-02-27T18:45:32.258Z,2.31
2023-02-27T18:48:34.575Z,2.40
2023-02-27T18:51:36.854Z,2.34
2023-02-27T18:54:40.876Z,2.36
2023-02-27T18:57:43.500Z,2.31
2023-02-27T19:00:45.753Z,2.27
2023-02-27T19:03:48.516Z,2.14
2023-02-27T19:06:51.079Z,2.33
2023-02-27T19:09:54.114Z,2.12
2023-02-27T19:12:56.357Z,2.06
2023-02-27T19:16:04.633Z,2.16
2023-02-27T19:19:08.763Z,2.19
2023-02-27T19:22:10.959Z,2.14
2023-02-27T19:25:13.301Z,2.31
2023-02-27T19:28:15.619Z,2.17
2023-02-27T19:31:17.902Z,2.34
2023-02-27T19:34:20.196Z,2.34
2023-02-27T19:37:22.438Z,2.48
2023-02-27T19:40:25.571Z,2.33
2023-02-27T19:43:27.963Z,2.48
2023-02-27T19:46:33.021Z,2.54
2023-02-27T19:49:35.419Z,2.61
2023-02-27T19:52:38.056Z,2.58
2023-02-27T19:55:40.419Z,2.61
2023-02-27T19:58:42.847Z,2.71
2023-02-27T20:01:45.096Z,2.74
2023-02-27T20:04:47.375Z,2.82
2023-02-27T20:07:49.683Z,2.64
2023-02-27T20:10:56.835Z,2.75
2023-02-27T20:13:59.831Z,2.80
2023-02-27T20:17:02.123Z,2.77
2023-02-27T20:20:06.075Z,2.80
2023-02-27T20:23:08.267Z,2.88
2023-02-27T20:26:16.195Z,2.91
2023-02-27T20:29:21.426Z,2.84
2023-02-27T20:32:24.704Z,2.88
2023-02-27T20:35:27.093Z,2.91
2023-02-27T20:38:30.020Z,2.85
2023-02-27T20:41:34.609Z,2.91
2023-02-27T20:44:37.187Z,2.82
2023-02-27T20:47:39.422Z,2.82
2023-02-27T20:50:41.727Z,2.85
2023-02-27T20:53:46.976Z,2.85
2023-02-27T20:56:54.478Z,2.81
2023-02-27T20:59:56.766Z,2.82
2023-02-27T21:03:00.842Z,2.84
2023-02-27T21:06:03.195Z,2.78
2023-02-27T21:09:06.633Z,2.78
2023-02-27T21:12:09.476Z,2.77
2023-02-27T21:15:12.199Z,2.74
2023-02-27T21:18:14.527Z,2.84
2023-02-27T21:21:19.286Z,2.92
2023-02-27T21:24:21.612Z,2.96
2023-02-27T21:27:24.031Z,2.95
2023-02-27T21:30:26.375Z,2.91
2023-02-27T21:33:28.606Z,2.98
2023-02-27T21:36:33.588Z,2.95
2023-02-27T21:39:35.895Z,2.85
2023-02-27T21:42:38.259Z,2.95
2023-02-27T21:45:46.246Z,2.91
2023-02-27T21:48:48.533Z,3.09
2023-02-27T21:51:51.188Z,3.01
2023-02-27T21:54:54.250Z,3.09
2023-02-27T21:57:56.627Z,2.98
2023-02-27T22:01:00.531Z,3.08
2023-02-27T22:04:03.599Z,3.06
2023-02-27T22:07:06.118Z,3.06
2023-02-27T22:10:09.146Z,3.05
2023-02-27T22:13:15.412Z,3.15
2023-02-27T22:16:18.238Z,3.08
2023-02-27T22:19:22.025Z,3.11
2023-02-27T22:22:24.621Z,3.08
2023-02-27T22:25:26.886Z,2.99
2023-02-27T22:28:30.875Z,2.81
2023-02-27T22:31:35.643Z,2.72
2023-02-27T22:34:37.838Z,2.88
2023-02-27T22:37:40.036Z,2.98
2023-02-27T22:40:42.217Z,3.05
2023-02-27T22:43:45.341Z,3.18
2023-02-27T22:46:49.183Z,3.04
2023-02-27T22:49:52.099Z,3.02
2023-02-27T22:52:54.300Z,3.04
2023-02-27T22:55:57.043Z,3.02
2023-02-27T22:58:59.790Z,2.74
2023-02-27T23:02:02.117Z,2.78
2023-02-27T23:05:07.395Z,2.78
2023-02-27T23:08:09.695Z,2.58
2023-02-27T23:11:14.036Z,2.54
2023-02-27T23:14:16.604Z,2.82
2023-02-27T23:17:18.813Z,2.87
2023-02-27T23:20:21.078Z,2.87
2023-02-27T23:23:23.303Z,2.89
2023-02-27T23:26:28.529Z,2.58
2023-02-27T23:29:30.896Z,2.31
2023-02-27T23:32:43.008Z,2.23
2023-02-27T23:35:45.311Z,2.05
2023-02-27T23:38:47.648Z,1.99
2023-02-27T23:41:50.020Z,1.66
2023-02-27T23:45:10.783Z,1.28
2023-02-27T23:48:13.150Z,1.03
2023-02-27T23:51:15.649Z,0.70
2023-02-27T23:54:17.899Z,0.58
2023-02-27T23:57:20.126Z,0.42
